Airfield :







YOU CAN JOIN US ON...

 
LOGIN :

Register | Disclaimer

   EN    FR    IT 

 









Legend :    VFR   Marginal VFR   IFR   Intensive IFR   Very Intensive IFR
Visi :
Ceiling :
>= 8 km
>= 3000ft
5 to 8 km
1000 to 3000 ft
1500m to 5 km
500 to 1000 ft
800 to 1500m
200 to 500 ft
< 800m
< 200 ft
Symbols :   Thunderstorms  Fog  Heavy snow  Heavy precipitations  Wind > 20 kt






- Airport Elevation : 241 ft
- IATA code : CEF


KCEF - Westover ARB/Metropolitan

CURRENT METAR :
  • 240956Z AUTO 00000KT 10SM CLR M07/M08 A3035 RMK AO2 SLP287 T10681083

EXPIRED METARs :
  • 240856Z AUTO 00000KT 10SM CLR M07/M09 A3034 RMK AO2 SLP283 T10681086 50003
  • 240756Z AUTO 00000KT 10SM CLR M05/M07 A3034 RMK AO2 SLP283 T10511072

TAF TAF KCEF
Valid from the 24 at 03:00 until the 25 at 09:00 UTC


240300Z 2403/2509 VRB06KT 9999 BKN200 QNH3032INS
BECMG 2415/2416 09009KT 9999 FEW150 SCT200 QNH3036INS
BECMG 2421/2422 09006KT 9999 FEW025 BKN100 OVC150 QNH3038INS
BECMG 2502/2503 02006KT 9999 BKN015 QNH3032INS TX07/2419Z TNM09/2411Z LAST NO AMDS AFT 2404 NEXT 2411



MET'MAP, your aeronautical weather chart ! - Copyright ORBIFLY December 2007 - Disclaimer

ORBIFLY MET'MAP TEAM :

Programming & Development : Alexandra Zaïnal
Concept & original design : Baudouin d'Aumeries
Assistance for programming : Marc-Olivier Méhu
Technical & hardware support : Manuel Goepfert

Contact : metmap@orbifly.com




SOURCES & CREDITS :

   NOAA